Time;durP1;ratioP1;P1;durP2;ratioP2;P2;SDS_P1;SDS_P2;PMS_P1;PMS_P2;Temp;Humidity;BMP_temperature;BMP_pressure;BME280_temperature;BME280_humidity;BME280_pressure;Samples;Min_cycle;Max_cycle;Signal;HPM_P1;HPM_P2
2023/10/05 00:02:22;;;;;;;9.70;4.50;;;;;;;17.46;99.47;101387.36;106343;1257;70431;-87
2023/10/05 00:04:51;;;;;;;11.10;4.40;;;;;;;17.49;98.85;101388.16;106451;1255;61636;-87
2023/10/05 00:07:26;;;;;;;8.20;4.00;;;;;;;17.47;98.72;101395.70;106678;1254;59996;-88
2023/10/05 00:10:00;;;;;;;10.60;4.00;;;;;;;17.47;98.55;101398.02;106200;1260;73074;-87
2023/10/05 00:12:30;;;;;;;8.80;3.70;;;;;;;17.44;98.58;101404.14;106309;1258;68635;-88
2023/10/05 00:15:23;;;;;;;7.30;3.20;;;;;;;17.42;98.74;101398.27;106270;1258;71442;-88
2023/10/05 00:17:48;;;;;;;9.00;3.90;;;;;;;17.53;97.70;101393.27;106199;1260;59691;-88
2023/10/05 00:20:22;;;;;;;8.50;3.50;;;;;;;17.61;96.61;101390.70;106464;1254;60054;-88
2023/10/05 00:22:51;;;;;;;12.00;3.70;;;;;;;17.62;95.94;101387.24;107597;1254;71099;-88
2023/10/05 00:25:23;;;;;;;7.80;3.50;;;;;;;17.59;95.56;101383.48;106191;1258;67606;-88
2023/10/05 00:27:54;;;;;;;5.50;3.70;;;;;;;17.54;95.34;101386.07;106308;1257;71073;-87
2023/10/05 00:30:23;;;;;;;8.50;3.90;;;;;;;17.49;95.00;101389.52;106360;1258;61734;-87
2023/10/05 00:32:59;;;;;;;6.70;3.80;;;;;;;17.48;94.69;101386.94;106334;1257;59678;-88
2023/10/05 00:35:29;;;;;;;8.30;3.40;;;;;;;17.50;94.25;101385.92;106845;1259;73086;-87
2023/10/05 00:38:04;;;;;;;9.00;3.90;;;;;;;17.52;93.80;101381.40;106229;1259;67619;-88
2023/10/05 00:40:42;;;;;;;10.00;4.10;;;;;;;17.55;93.12;101379.20;106285;1258;71376;-89
2023/10/05 00:45:47;;;;;;;8.60;3.20;;;;;;;17.57;91.44;101385.58;106182;1260;60202;-89
2023/10/05 00:51:25;;;;;;;9.00;3.80;;;;;;;17.53;91.30;101391.16;106719;1259;67117;-88
2023/10/05 00:53:53;;;;;;;12.30;3.90;;;;;;;17.49;91.65;101390.18;106041;1254;71257;-87
2023/10/05 00:56:22;;;;;;;7.60;3.50;;;;;;;17.42;92.16;101384.50;106298;1260;61835;-88
2023/10/05 00:59:04;;;;;;;7.00;3.50;;;;;;;17.42;92.15;101385.13;106237;1254;60510;-87
2023/10/05 01:02:03;;;;;;;10.80;3.90;;;;;;;17.39;92.01;101383.88;106370;1256;73026;-87
2023/10/05 01:07:07;;;;;;;7.50;3.40;;;;;;;17.26;92.54;101387.94;106245;1254;71030;-87
2023/10/05 01:14:52;;;;;;;9.00;3.40;;;;;;;16.89;94.91;101395.86;106247;1254;73227;-87
2023/10/05 01:17:21;;;;;;;7.50;3.30;;;;;;;16.86;94.99;101392.58;107243;1260;66860;-87
2023/10/05 01:19:57;;;;;;;7.80;3.30;;;;;;;16.87;94.53;101392.02;106190;1254;71417;-87
2023/10/05 01:22:32;;;;;;;5.40;3.00;;;;;;;16.92;93.79;101393.34;106402;1254;59982;-88
2023/10/05 01:27:03;;;;;;;8.50;3.40;;;;;;;16.84;93.39;101395.09;103217;1291;600529;-87
2023/10/05 01:29:31;;;;;;;8.90;3.00;;;;;;;16.70;93.72;101397.74;105425;1266;61661;-87
2023/10/05 01:31:59;;;;;;;5.50;3.10;;;;;;;16.64;93.62;101401.48;105435;1266;60120;-87
2023/10/05 01:34:27;;;;;;;7.20;3.00;;;;;;;16.58;93.99;101396.15;107692;1267;70982;-91
2023/10/05 01:36:55;;;;;;;5.80;3.30;;;;;;;16.54;93.88;101396.77;105345;1267;66184;-87
2023/10/05 01:39:24;;;;;;;10.60;3.30;;;;;;;16.49;94.11;101401.30;105463;1271;71454;-90
2023/10/05 01:41:52;;;;;;;6.20;2.90;;;;;;;16.46;94.35;101399.13;105417;1265;182027;-90
2023/10/05 01:44:20;;;;;;;5.20;3.30;;;;;;;16.47;94.09;101398.79;105755;1264;59347;-91
2023/10/05 01:46:49;;;;;;;8.60;3.60;;;;;;;16.48;93.90;101397.61;105532;1263;71254;-91
2023/10/05 01:49:18;;;;;;;6.10;3.10;;;;;;;16.47;94.01;101398.02;105533;1263;68812;-91
2023/10/05 01:51:47;;;;;;;9.30;3.40;;;;;;;16.50;94.05;101396.98;105352;1263;73042;-87
2023/10/05 01:54:17;;;;;;;9.20;3.00;;;;;;;16.49;93.89;101402.45;105958;1268;59656;-91
2023/10/05 01:56:47;;;;;;;7.90;3.50;;;;;;;16.44;94.23;101408.14;107969;1268;59228;-91
2023/10/05 01:59:20;;;;;;;5.90;3.10;;;;;;;16.40;94.48;101404.94;105634;1264;71776;-87
2023/10/05 02:01:48;;;;;;;4.90;2.70;;;;;;;16.31;94.74;101400.27;105782;1264;68374;-87
2023/10/05 02:04:17;;;;;;;5.50;3.30;;;;;;;16.24;95.14;101399.75;105823;1264;71470;-87
2023/10/05 02:06:49;;;;;;;6.90;3.10;;;;;;;16.17;95.42;101396.29;105662;1263;60107;-87
2023/10/05 02:09:19;;;;;;;6.00;3.10;;;;;;;16.15;95.20;101401.12;105543;1263;60170;-91
2023/10/05 02:11:48;;;;;;;8.80;3.20;;;;;;;16.09;95.05;101397.83;105235;1263;71830;-91
2023/10/05 02:14:16;;;;;;;8.80;3.40;;;;;;;16.00;95.29;101399.73;105389;1263;68435;-87
2023/10/05 02:16:51;;;;;;;7.50;3.00;;;;;;;15.95;95.44;101404.27;106180;1263;72680;-92
2023/10/05 02:19:19;;;;;;;6.20;3.00;;;;;;;15.90;95.54;101403.33;105705;1266;59643;-91
2023/10/05 02:21:51;;;;;;;6.00;2.90;;;;;;;15.89;95.54;101408.64;105682;1263;60037;-90
2023/10/05 02:24:22;;;;;;;6.90;3.20;;;;;;;15.81;95.97;101412.56;105571;1268;73111;-86
2023/10/05 02:29:28;;;;;;;5.90;3.10;;;;;;;15.81;96.37;101415.33;105317;1270;75100;-91
2023/10/05 02:34:45;;;;;;;7.80;3.20;;;;;;;15.89;95.82;101419.92;105534;1266;60520;-91
2023/10/05 02:37:13;;;;;;;5.70;3.20;;;;;;;15.82;95.86;101421.98;105509;1270;72955;-88
2023/10/05 02:39:41;;;;;;;4.90;2.90;;;;;;;15.84;95.82;101425.48;105687;1264;68826;-92
2023/10/05 02:42:12;;;;;;;6.80;3.10;;;;;;;15.87;95.42;101426.08;105634;1267;71910;-88
2023/10/05 02:44:43;;;;;;;10.30;3.30;;;;;;;15.87;95.25;101425.30;105662;1268;60407;-87
2023/10/05 02:47:16;;;;;;;4.80;2.70;;;;;;;15.86;95.53;101427.61;106247;1262;60166;-88
2023/10/05 02:49:44;;;;;;;9.30;3.40;;;;;;;15.82;95.68;101424.35;105528;1263;70540;-88
2023/10/05 02:52:13;;;;;;;7.50;3.00;;;;;;;15.82;95.61;101429.59;105477;1263;68506;-91
2023/10/05 02:54:42;;;;;;;5.40;3.20;;;;;;;15.79;95.57;101428.13;105508;1266;72970;-88
2023/10/05 02:57:14;;;;;;;7.70;3.30;;;;;;;15.81;95.36;101427.66;105542;1269;60451;-87
2023/10/05 02:59:43;;;;;;;7.60;4.00;;;;;;;15.83;95.14;101431.39;105479;1267;59628;-88
2023/10/05 03:02:14;;;;;;;6.10;3.00;;;;;;;15.75;95.65;101427.45;105408;1266;71888;-90
2023/10/05 03:04:56;;;;;;;5.40;3.00;;;;;;;15.77;95.19;101421.71;107684;1271;68460;-91
2023/10/05 03:07:25;;;;;;;5.50;2.90;;;;;;;15.70;95.01;101423.73;105480;1263;73159;-88
2023/10/05 03:09:59;;;;;;;5.90;3.50;;;;;;;15.54;96.09;101429.65;105928;1263;62136;-87
2023/10/05 03:12:32;;;;;;;6.50;3.00;;;;;;;15.42;96.87;101434.60;106179;1255;60023;-87
2023/10/05 03:15:06;;;;;;;8.60;3.40;;;;;;;15.38;97.17;101435.63;106123;1260;73009;-91
2023/10/05 03:17:37;;;;;;;6.40;3.40;;;;;;;15.41;96.68;101434.59;105970;1257;66146;-90
2023/10/05 03:20:08;;;;;;;5.70;3.30;;;;;;;15.41;96.96;101431.46;105919;1264;71431;-90
2023/10/05 03:22:36;;;;;;;8.20;3.90;;;;;;;15.41;97.31;101433.16;105973;1265;60046;-89
2023/10/05 03:25:05;;;;;;;6.20;3.70;;;;;;;15.40;97.64;101440.84;108096;1256;59574;-88
2023/10/05 03:27:33;;;;;;;5.70;3.50;;;;;;;15.42;97.71;101443.52;106313;1256;71560;-87
2023/10/05 03:30:06;;;;;;;6.00;3.50;;;;;;;15.46;97.55;101441.02;106148;1254;68423;-87
2023/10/05 03:32:35;;;;;;;8.50;3.50;;;;;;;15.48;97.65;101436.26;106320;1261;75574;-87
2023/10/05 03:35:04;;;;;;;8.00;3.40;;;;;;;15.51;97.50;101435.80;106133;1263;59787;-91
2023/10/05 03:37:32;;;;;;;5.70;3.40;;;;;;;15.55;97.00;101429.52;105990;1262;60131;-87
2023/10/05 03:42:31;;;;;;;7.70;3.90;;;;;;;15.43;96.99;101440.92;106436;1260;67234;-91
2023/10/05 03:45:11;;;;;;;9.00;3.70;;;;;;;15.32;97.68;101434.63;106164;1256;72639;-92
2023/10/05 03:47:39;;;;;;;6.00;3.60;;;;;;;15.24;97.85;101426.59;107104;1259;59632;-86
2023/10/05 03:50:16;;;;;;;7.30;3.50;;;;;;;15.30;97.19;101425.39;105931;1257;59701;-87
2023/10/05 03:52:47;;;;;;;7.50;3.40;;;;;;;15.28;96.89;101421.88;106122;1262;72829;-91
2023/10/05 03:55:18;;;;;;;5.10;3.40;;;;;;;15.24;97.18;101422.85;106048;1262;68391;-88
2023/10/05 03:57:50;;;;;;;6.70;3.80;;;;;;;15.18;97.78;101440.08;106119;1261;70488;-90
2023/10/05 04:02:52;;;;;;;7.50;3.70;;;;;;;15.11;98.05;101442.55;106828;1260;59939;-89
2023/10/05 04:05:22;;;;;;;8.90;4.10;;;;;;;15.05;98.76;101446.11;106326;1256;70807;-87
2023/10/05 04:07:52;;;;;;;8.00;3.70;;;;;;;15.05;99.20;101451.27;106116;1262;68297;-86
2023/10/05 04:10:23;;;;;;;9.50;3.70;;;;;;;15.09;99.33;101452.80;106031;1257;71964;-91
2023/10/05 04:12:51;;;;;;;7.40;3.80;;;;;;;15.13;99.89;101453.27;106171;1260;60244;-88
2023/10/05 04:15:20;;;;;;;8.80;4.10;;;;;;;15.15;100.00;101453.25;106018;1260;59603;-90
2023/10/05 04:17:49;;;;;;;12.20;4.70;;;;;;;15.20;100.00;101453.39;106020;1262;73034;-87
2023/10/05 04:20:19;;;;;;;6.90;3.90;;;;;;;15.28;100.00;101456.90;106417;1256;66272;-87
2023/10/05 04:22:49;;;;;;;7.70;3.70;;;;;;;15.34;99.96;101461.48;106130;1257;73043;-87
2023/10/05 04:25:17;;;;;;;8.50;4.20;;;;;;;15.36;99.85;101457.83;105995;1257;59573;-86
2023/10/05 04:27:48;;;;;;;11.10;4.00;;;;;;;15.38;99.96;101454.61;105826;1254;59727;-86
2023/10/05 04:30:20;;;;;;;8.10;4.40;;;;;;;15.37;100.00;101451.16;105824;1255;72446;-86
2023/10/05 04:32:49;;;;;;;9.80;4.10;;;;;;;15.43;100.00;101457.06;107597;1260;67097;-86
2023/10/05 04:35:28;;;;;;;9.20;4.10;;;;;;;15.52;100.00;101457.36;105894;1263;72591;-86
2023/10/05 04:37:56;;;;;;;9.80;4.10;;;;;;;15.56;99.97;101451.11;106021;1260;60458;-87
2023/10/05 04:40:25;;;;;;;7.70;4.20;;;;;;;15.62;99.59;101449.41;106019;1260;59997;-86
2023/10/05 04:42:58;;;;;;;7.00;4.10;;;;;;;15.67;99.73;101454.89;106003;1258;73323;-87
2023/10/05 04:45:27;;;;;;;7.60;3.80;;;;;;;15.71;99.47;101457.52;106127;1257;67931;-89
2023/10/05 04:47:59;;;;;;;8.90;4.30;;;;;;;15.75;99.22;101465.43;106528;1257;73193;-90
2023/10/05 04:50:27;;;;;;;9.10;4.20;;;;;;;15.79;99.11;101465.83;106002;1261;60112;-91
2023/10/05 04:52:58;;;;;;;6.00;4.20;;;;;;;15.82;99.08;101469.15;106199;1262;59573;-87
2023/10/05 04:55:32;;;;;;;9.50;4.40;;;;;;;15.91;98.86;101473.16;105859;1257;71024;-86
2023/10/05 05:08:34;;;;;;;8.50;4.10;;;;;;;16.36;97.20;101477.86;106270;1254;73681;-86
2023/10/05 05:11:03;;;;;;;11.60;5.10;;;;;;;16.47;96.66;101482.60;106064;1260;70681;-86
2023/10/05 05:13:31;;;;;;;9.10;4.30;;;;;;;16.57;96.13;101485.90;106066;1260;75194;-89
2023/10/05 05:16:00;;;;;;;10.60;4.50;;;;;;;16.72;95.30;101489.02;106046;1257;61214;-84
2023/10/05 05:18:28;;;;;;;7.60;3.90;;;;;;;16.85;94.50;101487.40;106225;1257;59793;-87
2023/10/05 05:20:56;;;;;;;10.20;3.90;;;;;;;17.01;92.96;101493.86;106427;1257;75459;-87
2023/10/05 05:23:24;;;;;;;11.10;4.60;;;;;;;17.11;92.03;101500.02;106813;1260;69004;-86
2023/10/05 06:44:07;;;;;;;9.70;4.90;;;;;;;19.86;68.68;101512.10;106020;1258;60355;-87
2023/10/05 06:46:35;;;;;;;10.00;5.00;;;;;;;19.99;67.90;101517.23;107469;1254;74209;-85
2023/10/05 06:49:05;;;;;;;11.60;4.90;;;;;;;20.17;67.07;101521.33;106180;1257;70633;-84
2023/10/05 06:51:34;;;;;;;12.10;4.80;;;;;;;20.42;66.72;101524.09;106343;1257;75053;-86
2023/10/05 06:54:02;;;;;;;9.80;5.10;;;;;;;20.59;64.91;101523.36;106331;1260;62424;-86
2023/10/05 06:56:30;;;;;;;10.30;4.70;;;;;;;20.68;63.81;101527.16;106351;1260;61129;-86
2023/10/05 06:58:58;;;;;;;14.30;4.90;;;;;;;20.76;63.29;101526.03;106374;1259;76165;-86
2023/10/05 07:01:26;;;;;;;11.50;4.50;;;;;;;20.85;62.63;101531.95;107490;1254;68364;-87
2023/10/05 07:03:55;;;;;;;8.60;4.60;;;;;;;21.01;61.78;101533.41;106865;1254;74108;-84
2023/10/05 07:06:24;;;;;;;7.80;4.70;;;;;;;21.16;59.63;101536.30;106279;1254;62403;-86
2023/10/05 07:08:52;;;;;;;9.30;4.40;;;;;;;21.25;59.50;101537.14;106271;1259;61952;-87
2023/10/05 07:11:21;;;;;;;11.40;5.10;;;;;;;21.33;58.42;101537.60;106377;1255;74728;-84
2023/10/05 07:13:49;;;;;;;10.40;4.20;;;;;;;21.39;58.39;101537.81;106297;1254;70968;-84
2023/10/05 07:16:17;;;;;;;9.70;4.40;;;;;;;21.43;58.66;101537.94;106332;1258;73313;-84
2023/10/05 07:18:45;;;;;;;10.60;4.80;;;;;;;21.50;57.31;101535.59;107150;1253;61972;-85
2023/10/05 07:21:13;;;;;;;8.20;4.70;;;;;;;21.59;57.27;101534.15;106331;1253;61211;-87
2023/10/05 07:23:41;;;;;;;10.50;4.20;;;;;;;21.69;56.60;101533.20;106432;1252;74942;-85
2023/10/05 07:26:09;;;;;;;8.60;4.40;;;;;;;21.80;56.10;101538.97;106392;1257;69867;-85
2023/10/05 07:28:37;;;;;;;9.20;4.70;;;;;;;21.92;55.68;101539.98;106310;1251;74142;-87
2023/10/05 07:31:05;;;;;;;12.40;5.00;;;;;;;22.03;55.19;101536.80;106637;1255;62432;-87
2023/10/05 07:33:33;;;;;;;8.50;4.30;;;;;;;22.11;54.53;101529.05;106593;1254;61204;-87
2023/10/05 07:36:02;;;;;;;11.30;4.80;;;;;;;22.19;53.97;101527.82;106337;1251;74979;-86
2023/10/05 07:38:31;;;;;;;10.90;4.40;;;;;;;22.30;53.55;101525.58;106400;1251;69671;-86
2023/10/05 07:41:03;;;;;;;9.20;5.40;;;;;;;22.44;53.69;101525.98;106474;1259;74082;-86
2023/10/05 07:43:32;;;;;;;16.80;6.10;;;;;;;22.59;52.96;101531.23;106223;1255;61279;-87
2023/10/05 07:46:06;;;;;;;13.20;5.30;;;;;;;22.69;53.04;101528.80;107309;1254;60918;-87
2023/10/05 07:48:34;;;;;;;9.40;5.50;;;;;;;22.88;52.14;101528.69;106419;1254;75228;-86
2023/10/05 07:51:02;;;;;;;14.50;5.20;;;;;;;23.03;50.97;101527.79;106416;1257;69945;-87
2023/10/05 07:53:31;;;;;;;11.50;4.60;;;;;;;23.13;49.95;101528.65;106260;1254;74362;-87
2023/10/05 07:55:59;;;;;;;26.50;13.10;;;;;;;23.13;49.86;101528.10;106183;1259;61635;-87
2023/10/05 07:58:27;;;;;;;26.60;11.30;;;;;;;23.22;49.59;101526.52;107047;1254;62407;-88
2023/10/05 08:00:54;;;;;;;11.10;4.70;;;;;;;23.32;49.38;101523.88;106359;1254;74755;-86
2023/10/05 08:03:23;;;;;;;7.80;4.10;;;;;;;23.39;48.45;101519.52;106487;1254;70555;-87
2023/10/05 08:05:51;;;;;;;7.60;3.40;;;;;;;23.49;48.66;101522.54;106297;1254;74841;-87
2023/10/05 08:08:20;;;;;;;6.70;3.40;;;;;;;23.54;47.93;101522.80;106422;1254;60547;-86
2023/10/05 08:10:48;;;;;;;6.80;3.60;;;;;;;23.63;47.77;101520.50;106257;1254;60471;-87
2023/10/05 08:13:16;;;;;;;9.40;3.60;;;;;;;23.82;47.86;101524.74;106450;1253;76552;-88
2023/10/05 08:15:44;;;;;;;8.20;3.20;;;;;;;24.00;46.97;101525.11;107049;1258;69390;-88
2023/10/05 08:18:14;;;;;;;5.60;2.60;;;;;;;24.11;45.85;101529.10;106357;1254;74982;-88
2023/10/05 08:20:42;;;;;;;10.20;3.00;;;;;;;24.17;45.20;101525.48;106460;1254;62174;-87
2023/10/05 08:23:10;;;;;;;6.50;2.70;;;;;;;24.19;44.80;101527.15;106142;1254;62277;-85
2023/10/05 08:25:38;;;;;;;33.00;5.40;;;;;;;24.27;45.37;101527.48;106410;1254;76097;-86
2023/10/05 08:28:09;;;;;;;7.20;3.10;;;;;;;24.39;44.41;101523.02;107165;1254;71106;-86
2023/10/05 08:30:45;;;;;;;8.80;3.50;;;;;;;24.39;43.41;101527.54;106467;1254;74084;-85
2023/10/05 08:33:15;;;;;;;7.70;3.00;;;;;;;24.39;43.84;101523.69;106196;1259;61633;-87
2023/10/05 08:35:43;;;;;;;7.00;3.10;;;;;;;24.44;43.36;101522.11;106354;1252;62196;-86
2023/10/05 08:38:15;;;;;;;11.30;3.50;;;;;;;24.47;42.68;101520.35;106301;1251;74969;-87
2023/10/05 08:40:45;;;;;;;8.00;2.90;;;;;;;24.54;42.14;101516.04;107639;1251;70934;-88
2023/10/05 08:43:16;;;;;;;6.20;2.90;;;;;;;24.61;40.88;101521.78;106329;1254;74092;-86
2023/10/05 08:45:47;;;;;;;8.10;2.80;;;;;;;24.66;41.21;101522.35;106648;1251;61194;-85
2023/10/05 08:48:34;;;;;;;7.00;2.70;;;;;;;24.71;41.14;101521.79;106362;1251;62123;-85
2023/10/05 08:51:09;;;;;;;7.40;3.00;;;;;;;24.76;41.42;101517.73;106362;1256;76162;-85
2023/10/05 08:53:48;;;;;;;7.40;3.20;;;;;;;24.84;41.15;101517.49;107335;1251;69649;-85
2023/10/05 08:56:17;;;;;;;8.80;2.90;;;;;;;24.95;41.02;101511.20;106319;1254;74888;-85
2023/10/05 08:58:46;;;;;;;5.30;2.80;;;;;;;25.04;40.39;101509.10;106405;1260;60480;-85
2023/10/05 09:01:25;;;;;;;7.30;3.00;;;;;;;25.14;39.64;101508.52;106595;1254;60431;-84
2023/10/05 09:03:54;;;;;;;6.80;2.80;;;;;;;25.23;39.22;101502.52;106557;1253;74370;-87
2023/10/05 09:06:24;;;;;;;9.00;3.10;;;;;;;25.31;38.53;101496.77;106847;1254;60836;-88
2023/10/05 09:11:34;;;;;;;7.00;2.90;;;;;;;25.47;37.98;101492.41;106382;1254;62301;-85
2023/10/05 09:16:43;;;;;;;8.50;3.20;;;;;;;25.47;37.55;101486.50;106353;1255;68479;-85
2023/10/05 09:19:15;;;;;;;7.30;2.90;;;;;;;25.55;37.36;101478.41;106896;1253;62811;-87
2023/10/05 09:21:46;;;;;;;22.20;4.10;;;;;;;25.71;37.24;101477.98;106327;1253;65854;-86
2023/10/05 09:24:19;;;;;;;5.50;3.10;;;;;;;25.65;36.77;101475.82;106517;1257;60507;-86
2023/10/05 09:26:55;;;;;;;7.30;3.00;;;;;;;25.61;36.25;101475.86;106580;1253;60342;-89
2023/10/05 09:29:28;;;;;;;6.80;2.80;;;;;;;25.64;36.38;101476.98;106345;1256;64084;-86
2023/10/05 09:31:57;;;;;;;6.30;3.40;;;;;;;25.80;36.28;101474.40;107200;1253;62119;-87
2023/10/05 09:34:44;;;;;;;9.50;4.00;;;;;;;25.86;35.73;101473.38;106430;1251;64780;-86
2023/10/05 09:37:13;;;;;;;8.30;3.60;;;;;;;25.89;35.75;101474.02;106407;1253;60413;-84
2023/10/05 09:39:43;;;;;;;13.00;3.60;;;;;;;25.95;35.53;101470.96;106412;1251;60549;-85
2023/10/05 09:42:17;;;;;;;9.60;3.30;;;;;;;25.99;35.29;101467.63;109304;1251;65657;-86
2023/10/05 09:44:51;;;;;;;8.50;3.30;;;;;;;26.03;34.69;101462.44;108075;1251;62093;-85
2023/10/05 09:47:27;;;;;;;7.20;3.30;;;;;;;25.99;34.87;101461.63;106904;1253;65194;-85
2023/10/05 09:49:57;;;;;;;6.00;2.80;;;;;;;26.09;34.78;101457.40;106301;1254;60412;-85
2023/10/05 09:52:31;;;;;;;7.70;2.70;;;;;;;26.16;34.37;101456.70;106375;1251;60597;-85
2023/10/05 09:54:59;;;;;;;7.00;2.70;;;;;;;26.23;34.37;101453.12;106331;1251;66976;-85
2023/10/05 09:57:27;;;;;;;6.00;2.90;;;;;;;26.35;33.88;101441.30;106406;1253;61123;-84
2023/10/05 09:59:57;;;;;;;7.00;2.60;;;;;;;26.42;33.60;101426.04;106886;1256;67531;-86
2023/10/05 10:02:30;;;;;;;8.80;3.20;;;;;;;26.47;33.53;101419.98;106120;1256;60483;-86
2023/10/05 10:04:59;;;;;;;7.60;3.20;;;;;;;26.56;33.35;101418.94;106392;1251;60386;-85
2023/10/05 10:07:32;;;;;;;8.30;2.90;;;;;;;26.63;33.45;101415.24;106913;1251;68290;-85
2023/10/05 10:10:00;;;;;;;8.20;3.00;;;;;;;26.69;33.63;101407.87;106364;1253;61145;-85
2023/10/05 10:12:38;;;;;;;7.10;2.90;;;;;;;26.69;34.11;101400.98;106682;1251;64875;-85
2023/10/05 10:15:24;;;;;;;8.00;3.20;;;;;;;26.68;34.33;101399.75;106484;1251;60414;-85
2023/10/05 10:18:03;;;;;;;9.40;3.00;;;;;;;26.81;33.98;101400.69;106393;1254;60461;-85
2023/10/05 10:20:35;;;;;;;7.40;2.90;;;;;;;26.88;33.43;101402.20;106388;1251;67448;-85
2023/10/05 10:23:22;;;;;;;10.90;3.10;;;;;;;26.91;32.83;101397.13;106324;1251;61759;-85
2023/10/05 10:25:50;;;;;;;6.50;2.70;;;;;;;26.99;32.98;101396.90;106785;1253;66851;-91
2023/10/05 10:28:39;;;;;;;6.40;3.00;;;;;;;27.06;32.91;101389.34;106331;1253;60495;-89
2023/10/05 10:31:18;;;;;;;8.80;3.30;;;;;;;27.12;31.97;101392.83;106389;1256;60290;-84
2023/10/05 10:33:52;;;;;;;6.20;3.30;;;;;;;27.17;31.80;101390.93;106337;1251;66897;-85
2023/10/05 10:36:23;;;;;;;12.30;3.30;;;;;;;27.18;31.83;101393.92;106515;1252;61072;-85
2023/10/05 10:38:51;;;;;;;6.10;3.10;;;;;;;27.01;31.81;101387.31;106284;1254;65870;-85
2023/10/05 10:41:21;;;;;;;8.00;2.70;;;;;;;26.82;32.01;101381.80;106967;1257;60476;-86
2023/10/05 10:43:49;;;;;;;6.60;2.70;;;;;;;26.77;32.16;101377.69;106515;1251;60451;-85
2023/10/05 10:46:21;;;;;;;7.50;3.10;;;;;;;26.77;31.86;101371.27;106441;1256;66848;-86
2023/10/05 10:48:54;;;;;;;6.60;2.70;;;;;;;26.82;32.28;101363.35;106478;1251;60628;-88
2023/10/05 10:51:22;;;;;;;9.00;3.70;;;;;;;26.99;32.43;101358.58;106481;1251;64730;-88
2023/10/05 10:53:57;;;;;;;11.50;3.90;;;;;;;27.17;32.04;101357.67;107201;1251;60439;-89
2023/10/05 10:56:34;;;;;;;6.80;3.40;;;;;;;27.27;31.91;101355.23;106458;1250;60401;-88
2023/10/05 10:59:10;;;;;;;8.00;3.10;;;;;;;27.26;31.57;101348.89;106119;1253;67084;-87
2023/10/05 11:01:42;;;;;;;7.10;3.30;;;;;;;27.24;31.60;101344.84;106428;1253;63197;-87
2023/10/05 11:04:23;;;;;;;6.20;3.00;;;;;;;27.33;31.52;101343.48;106601;1257;64641;-87
2023/10/05 11:07:05;;;;;;;6.10;2.80;;;;;;;27.42;31.37;101335.80;107567;1251;60444;-89
2023/10/05 11:09:35;;;;;;;8.30;3.70;;;;;;;27.45;31.25;101331.27;106776;1251;60445;-86
2023/10/05 11:12:10;;;;;;;9.00;2.80;;;;;;;27.44;31.24;101330.30;106461;1251;65774;-87
2023/10/05 11:14:40;;;;;;;10.30;3.00;;;;;;;27.35;31.23;101333.50;106473;1253;61995;-87
2023/10/05 11:17:31;;;;;;;9.20;2.60;;;;;;;27.30;31.23;101334.11;106562;1253;65637;-85
2023/10/05 11:20:15;;;;;;;7.40;3.00;;;;;;;27.24;31.17;101333.48;106548;1251;60539;-85
2023/10/05 11:22:43;;;;;;;6.20;2.80;;;;;;;27.22;31.15;101335.67;106370;1254;60909;-87
2023/10/05 11:25:23;;;;;;;7.80;2.80;;;;;;;27.19;30.94;101340.08;106524;1253;68213;-88
2023/10/05 11:28:00;;;;;;;6.90;3.10;;;;;;;27.09;30.37;101340.67;106548;1256;61861;-86
2023/10/05 11:30:42;;;;;;;5.50;2.30;;;;;;;27.02;30.74;101341.17;106413;1251;65693;-86
2023/10/05 11:33:16;;;;;;;7.60;2.90;;;;;;;27.01;31.04;101334.13;106377;1252;60513;-88
2023/10/05 11:36:17;;;;;;;6.30;2.70;;;;;;;27.05;31.02;101329.31;106338;1251;60461;-87
2023/10/05 11:38:48;;;;;;;5.90;3.00;;;;;;;27.06;31.22;101329.71;106508;1251;65942;-85
2023/10/05 11:41:23;;;;;;;7.00;2.40;;;;;;;27.09;31.03;101326.34;106442;1257;62006;-87
2023/10/05 11:43:58;;;;;;;12.40;2.90;;;;;;;27.14;31.02;101320.90;106336;1251;65809;-85
2023/10/05 11:46:43;;;;;;;8.10;2.90;;;;;;;27.24;30.75;101319.51;106445;1253;60429;-86
2023/10/05 11:49:13;;;;;;;7.50;2.80;;;;;;;27.32;30.24;101311.00;106301;1256;60446;-86
2023/10/05 11:51:44;;;;;;;7.70;2.80;;;;;;;27.34;29.75;101311.04;106249;1253;67259;-87
2023/10/05 11:54:15;;;;;;;8.70;3.10;;;;;;;27.29;30.00;101311.09;106421;1256;61285;-88
2023/10/05 11:56:46;;;;;;;6.80;2.60;;;;;;;27.29;30.30;101308.94;106303;1251;64874;-87
2023/10/05 11:59:14;;;;;;;7.30;3.20;;;;;;;27.26;30.58;101308.57;106305;1252;60518;-88
2023/10/05 12:01:44;;;;;;;6.30;2.90;;;;;;;27.32;30.65;101308.18;106293;1257;60384;-85
2023/10/05 12:04:12;;;;;;;7.90;2.90;;;;;;;27.32;30.70;101307.30;106161;1254;66957;-88
2023/10/05 12:06:40;;;;;;;13.60;3.90;;;;;;;27.31;30.89;101306.42;106471;1256;61745;-88
2023/10/05 12:09:27;;;;;;;6.30;2.50;;;;;;;27.29;31.00;101308.55;106403;1253;65911;-87
2023/10/05 12:11:57;;;;;;;6.70;2.80;;;;;;;27.29;31.10;101313.37;106283;1258;60486;-85
2023/10/05 12:14:25;;;;;;;7.50;2.90;;;;;;;27.27;31.11;101312.59;106297;1251;60467;-86
2023/10/05 12:16:57;;;;;;;7.20;2.80;;;;;;;27.28;30.52;101310.84;106348;1253;67103;-89
2023/10/05 12:19:28;;;;;;;8.60;2.90;;;;;;;27.24;30.49;101307.17;106378;1257;62358;-85
2023/10/05 12:21:59;;;;;;;6.60;2.80;;;;;;;27.20;30.53;101304.36;106437;1255;65118;-87
2023/10/05 12:24:28;;;;;;;7.60;3.10;;;;;;;27.16;30.38;101306.99;106118;1251;60460;-85
2023/10/05 12:26:58;;;;;;;6.50;2.80;;;;;;;27.08;30.29;101301.88;106529;1253;60428;-88
2023/10/05 12:29:28;;;;;;;5.00;2.80;;;;;;;26.98;30.52;101297.92;106426;1251;67051;-85
2023/10/05 12:32:01;;;;;;;8.00;2.60;;;;;;;26.87;30.86;101296.89;106397;1253;63184;-84
2023/10/05 12:34:29;;;;;;;10.00;3.30;;;;;;;26.79;31.18;101296.26;106448;1251;67037;-85
2023/10/05 12:36:57;;;;;;;8.10;2.80;;;;;;;26.73;31.32;101294.14;106523;1254;60365;-85
2023/10/05 12:39:27;;;;;;;6.70;2.80;;;;;;;26.68;31.36;101290.91;106394;1251;60521;-84
2023/10/05 12:41:56;;;;;;;7.10;3.00;;;;;;;26.64;31.27;101293.70;106366;1256;67326;-87
2023/10/05 12:44:24;;;;;;;7.90;2.90;;;;;;;26.66;30.96;101288.05;106522;1258;62663;-85
2023/10/05 12:46:52;;;;;;;7.80;3.10;;;;;;;26.68;30.49;101287.30;106384;1253;65955;-86
2023/10/05 12:49:21;;;;;;;5.80;2.90;;;;;;;26.74;30.41;101284.77;106367;1253;60524;-86
2023/10/05 12:51:50;;;;;;;8.80;3.10;;;;;;;26.83;30.33;101281.04;106541;1251;60499;-85
2023/10/05 12:56:55;;;;;;;7.00;3.10;;;;;;;26.89;30.29;101277.88;108547;1251;61387;-87
2023/10/05 12:59:43;;;;;;;5.70;2.60;;;;;;;26.97;30.20;101269.85;106164;1255;63758;-85
2023/10/05 13:02:17;;;;;;;6.20;2.90;;;;;;;27.06;30.31;101261.84;106554;1256;60480;-85
2023/10/05 13:04:45;;;;;;;7.30;3.20;;;;;;;27.12;30.28;101254.98;106454;1251;60441;-89
2023/10/05 13:07:18;;;;;;;6.40;2.90;;;;;;;27.16;30.25;101249.04;106381;1251;66068;-90
2023/10/05 13:09:59;;;;;;;7.70;2.80;;;;;;;27.20;30.14;101248.96;106506;1251;60437;-89
2023/10/05 13:12:30;;;;;;;5.50;2.60;;;;;;;27.14;29.97;101246.85;106345;1253;65905;-85
2023/10/05 13:15:03;;;;;;;5.80;2.70;;;;;;;27.03;30.20;101246.71;106482;1251;60491;-86
2023/10/05 13:17:37;;;;;;;5.00;2.70;;;;;;;26.93;30.71;101242.92;106879;1251;60476;-87
2023/10/05 13:20:14;;;;;;;9.50;4.10;;;;;;;26.89;31.08;101243.26;106518;1251;64994;-85
2023/10/05 13:22:45;;;;;;;7.90;3.00;;;;;;;26.84;31.18;101236.77;108002;1256;60358;-86
2023/10/05 13:25:13;;;;;;;6.90;3.00;;;;;;;26.76;31.45;101235.09;108449;1253;63851;-86
2023/10/05 13:27:42;;;;;;;6.20;3.00;;;;;;;26.71;31.68;101235.95;106306;1251;60499;-87
2023/10/05 13:30:10;;;;;;;6.00;2.90;;;;;;;26.64;31.58;101232.36;106478;1253;60413;-87
2023/10/05 13:32:38;;;;;;;18.70;3.60;;;;;;;26.51;31.83;101231.19;106313;1260;65086;-87
2023/10/05 13:35:29;;;;;;;7.00;2.80;;;;;;;26.44;32.07;101228.56;106441;1253;60421;-85
2023/10/05 13:38:24;;;;;;;6.00;2.50;;;;;;;26.39;32.09;101227.67;106686;1251;63878;-86